sensor_id;sensor_type;location;lat;lon;timestamp;pressure;altitude;pressure_sealevel;temperature;humidity
10366;BME280;5229;41.820;23.490;2023-04-23T00:01:04;89900.69;;;7.37;70.16
10366;BME280;5229;41.820;23.490;2023-04-23T00:03:33;89898.97;;;7.33;70.03
10366;BME280;5229;41.820;23.490;2023-04-23T00:06:04;89889.78;;;7.27;70.16
10366;BME280;5229;41.820;23.490;2023-04-23T00:08:33;89891.41;;;7.23;70.42
10366;BME280;5229;41.820;23.490;2023-04-23T00:11:00;89888.09;;;7.22;71.01
10366;BME280;5229;41.820;23.490;2023-04-23T00:13:28;89895.06;;;7.22;70.96
10366;BME280;5229;41.820;23.490;2023-04-23T00:15:55;89892.19;;;7.23;71.07
10366;BME280;5229;41.820;23.490;2023-04-23T00:18:22;89889.63;;;7.23;70.59
10366;BME280;5229;41.820;23.490;2023-04-23T00:20:49;89901.66;;;7.28;71.17
10366;BME280;5229;41.820;23.490;2023-04-23T00:23:17;89902.59;;;7.32;70.30
10366;BME280;5229;41.820;23.490;2023-04-23T00:25:44;89899.63;;;7.38;70.95
10366;BME280;5229;41.820;23.490;2023-04-23T00:28:11;89895.63;;;7.46;70.11
10366;BME280;5229;41.820;23.490;2023-04-23T00:30:38;89910.44;;;7.54;70.58
10366;BME280;5229;41.820;23.490;2023-04-23T00:33:04;89908.72;;;7.63;70.99
10366;BME280;5229;41.820;23.490;2023-04-23T00:35:31;89905.75;;;7.69;70.53
10366;BME280;5229;41.820;23.490;2023-04-23T00:37:58;89913.38;;;7.74;70.74
10366;BME280;5229;41.820;23.490;2023-04-23T00:40:26;89906.91;;;7.77;70.50
10366;BME280;5229;41.820;23.490;2023-04-23T00:42:53;89902.47;;;7.77;71.05
10366;BME280;5229;41.820;23.490;2023-04-23T00:45:22;89903.25;;;7.78;71.15
10366;BME280;5229;41.820;23.490;2023-04-23T00:47:49;89909.94;;;7.79;71.19
10366;BME280;5229;41.820;23.490;2023-04-23T00:50:16;89908.03;;;7.84;71.14
10366;BME280;5229;41.820;23.490;2023-04-23T00:52:43;89904.00;;;7.92;70.67
10366;BME280;5229;41.820;23.490;2023-04-23T00:55:10;89907.53;;;7.96;70.37
10366;BME280;5229;41.820;23.490;2023-04-23T00:57:38;89912.56;;;8.01;70.09
10366;BME280;5229;41.820;23.490;2023-04-23T01:00:06;89908.47;;;8.00;69.64
10366;BME280;5229;41.820;23.490;2023-04-23T01:02:33;89906.47;;;7.97;70.00
10366;BME280;5229;41.820;23.490;2023-04-23T01:05:03;89907.53;;;7.96;70.19
10366;BME280;5229;41.820;23.490;2023-04-23T01:07:30;89908.75;;;7.98;70.57
10366;BME280;5229;41.820;23.490;2023-04-23T01:09:57;89916.22;;;8.00;69.86
10366;BME280;5229;41.820;23.490;2023-04-23T01:12:24;89908.19;;;8.01;70.67
10366;BME280;5229;41.820;23.490;2023-04-23T01:14:52;89909.13;;;8.05;70.35
10366;BME280;5229;41.820;23.490;2023-04-23T01:17:20;89908.56;;;8.08;70.07
10366;BME280;5229;41.820;23.490;2023-04-23T01:19:47;89916.19;;;8.13;70.07
10366;BME280;5229;41.820;23.490;2023-04-23T01:22:15;89911.22;;;8.17;70.67
10366;BME280;5229;41.820;23.490;2023-04-23T01:24:42;89917.91;;;8.18;69.89
10366;BME280;5229;41.820;23.490;2023-04-23T01:27:09;89913.31;;;8.15;69.86
10366;BME280;5229;41.820;23.490;2023-04-23T01:29:37;89920.13;;;8.11;69.97
10366;BME280;5229;41.820;23.490;2023-04-23T01:32:04;89910.19;;;8.04;70.65
10366;BME280;5229;41.820;23.490;2023-04-23T01:34:32;89913.19;;;7.98;70.77
10366;BME280;5229;41.820;23.490;2023-04-23T01:37:01;89915.28;;;7.96;70.23
10366;BME280;5229;41.820;23.490;2023-04-23T01:39:30;89917.28;;;7.99;70.07
10366;BME280;5229;41.820;23.490;2023-04-23T01:41:57;89918.50;;;8.01;71.32
10366;BME280;5229;41.820;23.490;2023-04-23T01:44:24;89911.25;;;8.03;70.46
10366;BME280;5229;41.820;23.490;2023-04-23T01:46:51;89916.00;;;8.10;70.25
10366;BME280;5229;41.820;23.490;2023-04-23T01:49:19;89914.38;;;8.14;71.01
10366;BME280;5229;41.820;23.490;2023-04-23T01:51:45;89912.56;;;8.14;70.33
10366;BME280;5229;41.820;23.490;2023-04-23T01:54:12;89917.63;;;8.19;71.05
10366;BME280;5229;41.820;23.490;2023-04-23T01:56:40;89921.47;;;8.22;70.81
10366;BME280;5229;41.820;23.490;2023-04-23T01:59:07;89911.78;;;8.27;70.39
10366;BME280;5229;41.820;23.490;2023-04-23T02:01:41;89916.84;;;8.32;70.31
10366;BME280;5229;41.820;23.490;2023-04-23T02:04:09;89916.72;;;8.37;70.97
10366;BME280;5229;41.820;23.490;2023-04-23T02:06:37;89914.63;;;8.39;70.59
10366;BME280;5229;41.820;23.490;2023-04-23T02:09:04;89912.22;;;8.43;70.93
10366;BME280;5229;41.820;23.490;2023-04-23T02:11:31;89917.28;;;8.48;70.74
10366;BME280;5229;41.820;23.490;2023-04-23T02:13:59;89903.00;;;8.50;70.59
10366;BME280;5229;41.820;23.490;2023-04-23T02:16:26;89904.25;;;8.53;70.69
10366;BME280;5229;41.820;23.490;2023-04-23T02:18:53;89914.28;;;8.54;70.86
10366;BME280;5229;41.820;23.490;2023-04-23T02:21:22;89916.56;;;8.56;70.59
10366;BME280;5229;41.820;23.490;2023-04-23T02:23:49;89904.44;;;8.56;71.04
10366;BME280;5229;41.820;23.490;2023-04-23T02:26:16;89911.91;;;8.58;70.75
10366;BME280;5229;41.820;23.490;2023-04-23T02:28:43;89917.22;;;8.61;71.20
10366;BME280;5229;41.820;23.490;2023-04-23T02:31:11;89914.84;;;8.65;70.94
10366;BME280;5229;41.820;23.490;2023-04-23T02:33:38;89914.50;;;8.66;71.02
10366;BME280;5229;41.820;23.490;2023-04-23T02:36:06;89915.28;;;8.67;70.51
10366;BME280;5229;41.820;23.490;2023-04-23T02:38:33;89918.16;;;8.65;70.54
10366;BME280;5229;41.820;23.490;2023-04-23T02:40:59;89909.66;;;8.65;71.22
10366;BME280;5229;41.820;23.490;2023-04-23T02:43:26;89919.38;;;8.68;70.93
10366;BME280;5229;41.820;23.490;2023-04-23T02:45:53;89918.06;;;8.70;71.14
10366;BME280;5229;41.820;23.490;2023-04-23T02:48:21;89925.53;;;8.72;71.05
10366;BME280;5229;41.820;23.490;2023-04-23T02:50:50;89917.16;;;8.75;71.14
10366;BME280;5229;41.820;23.490;2023-04-23T02:53:17;89911.41;;;8.78;70.61
10366;BME280;5229;41.820;23.490;2023-04-23T02:55:43;89918.13;;;8.79;71.25
10366;BME280;5229;41.820;23.490;2023-04-23T02:58:10;89915.22;;;8.80;71.26
10366;BME280;5229;41.820;23.490;2023-04-23T03:00:37;89911.88;;;8.80;71.22
10366;BME280;5229;41.820;23.490;2023-04-23T03:03:04;89916.00;;;8.81;71.01
10366;BME280;5229;41.820;23.490;2023-04-23T03:05:32;89919.06;;;8.83;70.97
10366;BME280;5229;41.820;23.490;2023-04-23T03:07:58;89921.75;;;8.78;71.13
10366;BME280;5229;41.820;23.490;2023-04-23T03:10:25;89924.47;;;8.73;70.89
10366;BME280;5229;41.820;23.490;2023-04-23T03:12:52;89919.88;;;8.70;71.25
10366;BME280;5229;41.820;23.490;2023-04-23T03:15:19;89925.91;;;8.65;70.48
10366;BME280;5229;41.820;23.490;2023-04-23T03:17:45;89922.41;;;8.61;70.85
10366;BME280;5229;41.820;23.490;2023-04-23T03:20:12;89921.63;;;8.61;71.18
10366;BME280;5229;41.820;23.490;2023-04-23T03:22:40;89931.38;;;8.64;70.89
10366;BME280;5229;41.820;23.490;2023-04-23T03:25:07;89927.75;;;8.65;70.78
10366;BME280;5229;41.820;23.490;2023-04-23T03:27:34;89931.84;;;8.66;70.82
10366;BME280;5229;41.820;23.490;2023-04-23T03:30:01;89931.38;;;8.64;70.54
10366;BME280;5229;41.820;23.490;2023-04-23T03:32:28;89935.19;;;8.66;70.86
10366;BME280;5229;41.820;23.490;2023-04-23T03:34:54;89933.66;;;8.65;71.11
10366;BME280;5229;41.820;23.490;2023-04-23T03:37:21;89937.31;;;8.64;70.55
10366;BME280;5229;41.820;23.490;2023-04-23T03:39:50;89930.34;;;8.65;71.01
10366;BME280;5229;41.820;23.490;2023-04-23T03:42:16;89930.03;;;8.66;70.57
10366;BME280;5229;41.820;23.490;2023-04-23T03:44:43;89935.19;;;8.66;70.45
10366;BME280;5229;41.820;23.490;2023-04-23T03:47:10;89938.09;;;8.65;70.82
10366;BME280;5229;41.820;23.490;2023-04-23T03:49:37;89935.19;;;8.66;70.47
10366;BME280;5229;41.820;23.490;2023-04-23T03:52:04;89937.47;;;8.68;71.03
10366;BME280;5229;41.820;23.490;2023-04-23T03:54:31;89940.56;;;8.70;70.31
10366;BME280;5229;41.820;23.490;2023-04-23T03:56:59;89948.31;;;8.70;71.04
10366;BME280;5229;41.820;23.490;2023-04-23T03:59:26;89948.31;;;8.70;70.81
10366;BME280;5229;41.820;23.490;2023-04-23T04:01:53;89952.88;;;8.73;70.85
10366;BME280;5229;41.820;23.490;2023-04-23T04:04:20;89951.66;;;8.70;70.61
10366;BME280;5229;41.820;23.490;2023-04-23T04:06:46;89959.41;;;8.70;70.58
10366;BME280;5229;41.820;23.490;2023-04-23T04:09:13;89963.81;;;8.70;70.61
10366;BME280;5229;41.820;23.490;2023-04-23T04:11:41;89961.22;;;8.70;70.96
10366;BME280;5229;41.820;23.490;2023-04-23T04:14:09;89964.88;;;8.69;71.07
10366;BME280;5229;41.820;23.490;2023-04-23T04:16:36;89962.59;;;8.67;71.01
10366;BME280;5229;41.820;23.490;2023-04-23T04:19:03;89968.50;;;8.68;70.68
10366;BME280;5229;41.820;23.490;2023-04-23T04:21:30;89964.88;;;8.69;71.47
10366;BME280;5229;41.820;23.490;2023-04-23T04:23:57;89971.56;;;8.70;71.23
10366;BME280;5229;41.820;23.490;2023-04-23T04:26:26;89970.50;;;8.71;71.66
10366;BME280;5229;41.820;23.490;2023-04-23T04:28:52;89972.06;;;8.72;71.39
10366;BME280;5229;41.820;23.490;2023-04-23T04:31:21;89971.44;;;8.75;71.27
10366;BME280;5229;41.820;23.490;2023-04-23T04:33:47;89969.81;;;8.79;71.27
10366;BME280;5229;41.820;23.490;2023-04-23T04:36:14;89971.06;;;8.81;71.40
10366;BME280;5229;41.820;23.490;2023-04-23T04:38:41;89974.56;;;8.85;70.74
10366;BME280;5229;41.820;23.490;2023-04-23T04:41:08;89983.56;;;8.88;70.67
10366;BME280;5229;41.820;23.490;2023-04-23T04:43:35;89985.66;;;8.86;71.28
10366;BME280;5229;41.820;23.490;2023-04-23T04:46:02;89975.16;;;8.82;70.97
10366;BME280;5229;41.820;23.490;2023-04-23T04:48:30;89978.03;;;8.81;70.71
10366;BME280;5229;41.820;23.490;2023-04-23T04:50:57;89983.06;;;8.86;70.82
10366;BME280;5229;41.820;23.490;2023-04-23T04:53:24;89984.34;;;8.88;71.31
10366;BME280;5229;41.820;23.490;2023-04-23T04:55:53;89982.97;;;8.91;71.25
10366;BME280;5229;41.820;23.490;2023-04-23T04:58:20;89984.50;;;8.92;70.82
10366;BME280;5229;41.820;23.490;2023-04-23T05:00:47;89986.03;;;8.93;71.02
10366;BME280;5229;41.820;23.490;2023-04-23T05:03:16;89991.50;;;8.91;71.11
10366;BME280;5229;41.820;23.490;2023-04-23T05:05:44;89993.31;;;8.91;71.42
10366;BME280;5229;41.820;23.490;2023-04-23T05:08:13;89998.50;;;8.91;71.41
10366;BME280;5229;41.820;23.490;2023-04-23T05:10:41;89992.56;;;8.90;71.09
10366;BME280;5229;41.820;23.490;2023-04-23T05:13:08;90001.25;;;8.94;71.22
10366;BME280;5229;41.820;23.490;2023-04-23T05:15:35;89995.97;;;8.99;71.27
10366;BME280;5229;41.820;23.490;2023-04-23T05:18:03;90001.78;;;9.05;71.41
10366;BME280;5229;41.820;23.490;2023-04-23T05:20:31;90004.84;;;9.07;70.86
10366;BME280;5229;41.820;23.490;2023-04-23T05:22:59;90010.66;;;9.13;71.02
10366;BME280;5229;41.820;23.490;2023-04-23T05:25:27;89995.31;;;9.16;70.83
10366;BME280;5229;41.820;23.490;2023-04-23T05:27:55;89993.81;;;9.15;70.83
10366;BME280;5229;41.820;23.490;2023-04-23T05:30:22;90001.44;;;9.20;71.19
10366;BME280;5229;41.820;23.490;2023-04-23T05:32:49;89997.09;;;9.29;70.76
10366;BME280;5229;41.820;23.490;2023-04-23T05:35:16;90001.69;;;9.41;70.83
10366;BME280;5229;41.820;23.490;2023-04-23T05:37:42;90001.31;;;9.47;70.43
10366;BME280;5229;41.820;23.490;2023-04-23T05:40:11;90004.69;;;9.56;70.41
10366;BME280;5229;41.820;23.490;2023-04-23T05:42:37;90010.78;;;9.60;70.40
10366;BME280;5229;41.820;23.490;2023-04-23T05:45:05;90010.97;;;9.64;70.28
10366;BME280;5229;41.820;23.490;2023-04-23T05:47:32;90009.16;;;9.64;70.01
10366;BME280;5229;41.820;23.490;2023-04-23T05:49:59;90010.69;;;9.65;69.83
10366;BME280;5229;41.820;23.490;2023-04-23T05:52:26;90009.63;;;9.66;69.99
10366;BME280;5229;41.820;23.490;2023-04-23T05:54:55;90014.78;;;9.66;69.97
10366;BME280;5229;41.820;23.490;2023-04-23T05:57:23;90014.50;;;9.68;70.20
10366;BME280;5229;41.820;23.490;2023-04-23T05:59:50;90015.28;;;9.68;70.01
10366;BME280;5229;41.820;23.490;2023-04-23T06:02:17;90012.09;;;9.71;69.93
10366;BME280;5229;41.820;23.490;2023-04-23T06:04:44;90012.44;;;9.78;69.65
10366;BME280;5229;41.820;23.490;2023-04-23T06:07:11;90019.56;;;9.81;69.92
10366;BME280;5229;41.820;23.490;2023-04-23T06:09:39;90009.56;;;9.88;69.43
10366;BME280;5229;41.820;23.490;2023-04-23T06:12:06;90008.22;;;9.99;70.10
10366;BME280;5229;41.820;23.490;2023-04-23T06:14:34;90017.31;;;10.10;69.79
10366;BME280;5229;41.820;23.490;2023-04-23T06:17:01;90010.78;;;10.21;69.33
10366;BME280;5229;41.820;23.490;2023-04-23T06:19:28;90008.38;;;10.33;69.38
10366;BME280;5229;41.820;23.490;2023-04-23T06:21:55;89998.66;;;10.47;69.29
10366;BME280;5229;41.820;23.490;2023-04-23T06:24:21;90011.78;;;10.59;69.17
10366;BME280;5229;41.820;23.490;2023-04-23T06:26:48;90004.97;;;10.72;68.92
10366;BME280;5229;41.820;23.490;2023-04-23T06:29:15;90012.28;;;10.87;68.51
10366;BME280;5229;41.820;23.490;2023-04-23T06:31:43;90016.41;;;10.96;68.72
10366;BME280;5229;41.820;23.490;2023-04-23T06:34:10;90007.72;;;11.01;68.54
10366;BME280;5229;41.820;23.490;2023-04-23T06:36:36;90019.63;;;11.10;68.28
10366;BME280;5229;41.820;23.490;2023-04-23T06:39:03;90022.34;;;11.14;67.90
10366;BME280;5229;41.820;23.490;2023-04-23T06:41:30;90018.25;;;11.21;67.86
10366;BME280;5229;41.820;23.490;2023-04-23T06:43:57;90017.03;;;11.27;68.16
10366;BME280;5229;41.820;23.490;2023-04-23T06:46:24;90024.66;;;11.32;67.60
10366;BME280;5229;41.820;23.490;2023-04-23T06:48:52;90020.38;;;11.36;67.06
10366;BME280;5229;41.820;23.490;2023-04-23T06:51:18;90025.25;;;11.38;67.40
10366;BME280;5229;41.820;23.490;2023-04-23T06:53:45;90027.22;;;11.41;67.41
10366;BME280;5229;41.820;23.490;2023-04-23T06:56:12;90025.09;;;11.43;66.54
10366;BME280;5229;41.820;23.490;2023-04-23T06:58:39;90024.63;;;11.49;66.19
10366;BME280;5229;41.820;23.490;2023-04-23T07:01:06;90016.06;;;11.57;67.23
10366;BME280;5229;41.820;23.490;2023-04-23T07:03:32;90017.13;;;11.82;67.39
10366;BME280;5229;41.820;23.490;2023-04-23T07:06:02;90010.38;;;12.27;66.50
10366;BME280;5229;41.820;23.490;2023-04-23T07:08:29;90014.50;;;12.86;66.05
10366;BME280;5229;41.820;23.490;2023-04-23T07:10:56;90016.50;;;13.51;65.01
10366;BME280;5229;41.820;23.490;2023-04-23T07:13:23;90020.22;;;14.06;63.76
10366;BME280;5229;41.820;23.490;2023-04-23T07:15:50;90022.28;;;14.57;62.95
10366;BME280;5229;41.820;23.490;2023-04-23T07:18:16;90021.63;;;14.97;61.88
10366;BME280;5229;41.820;23.490;2023-04-23T07:20:43;90021.22;;;15.34;61.74
10366;BME280;5229;41.820;23.490;2023-04-23T07:23:11;90023.69;;;15.55;60.92
10366;BME280;5229;41.820;23.490;2023-04-23T07:25:38;90013.16;;;15.67;60.42
10366;BME280;5229;41.820;23.490;2023-04-23T07:28:05;90019.56;;;15.81;59.87
10366;BME280;5229;41.820;23.490;2023-04-23T07:30:32;90018.41;;;15.94;59.21
10366;BME280;5229;41.820;23.490;2023-04-23T07:32:59;90018.78;;;16.08;59.17
10366;BME280;5229;41.820;23.490;2023-04-23T07:35:26;90014.00;;;16.41;58.66
10366;BME280;5229;41.820;23.490;2023-04-23T07:37:53;90018.31;;;16.80;57.48
10366;BME280;5229;41.820;23.490;2023-04-23T07:40:23;90012.25;;;17.11;56.92
10366;BME280;5229;41.820;23.490;2023-04-23T07:42:51;90014.94;;;17.30;55.98
10366;BME280;5229;41.820;23.490;2023-04-23T07:45:18;90013.13;;;17.50;55.25
10366;BME280;5229;41.820;23.490;2023-04-23T07:47:46;90010.94;;;17.71;54.94
10366;BME280;5229;41.820;23.490;2023-04-23T07:50:13;90014.38;;;17.94;54.10
10366;BME280;5229;41.820;23.490;2023-04-23T07:52:40;90006.84;;;18.11;53.79
10366;BME280;5229;41.820;23.490;2023-04-23T07:55:07;90007.94;;;18.33;53.44
10366;BME280;5229;41.820;23.490;2023-04-23T07:57:36;90013.63;;;18.80;53.22
10366;BME280;5229;41.820;23.490;2023-04-23T08:00:03;90014.47;;;19.32;52.38
10366;BME280;5229;41.820;23.490;2023-04-23T08:02:33;90014.59;;;20.02;51.31
10366;BME280;5229;41.820;23.490;2023-04-23T08:05:00;90011.56;;;20.73;50.04
10366;BME280;5229;41.820;23.490;2023-04-23T08:07:27;90014.00;;;21.39;48.57
10366;BME280;5229;41.820;23.490;2023-04-23T08:09:54;90012.75;;;21.84;48.01
10366;BME280;5229;41.820;23.490;2023-04-23T08:12:22;90019.00;;;22.40;46.42
10366;BME280;5229;41.820;23.490;2023-04-23T08:14:50;90011.16;;;22.75;45.33
10366;BME280;5229;41.820;23.490;2023-04-23T08:17:17;90010.09;;;23.29;44.44
10366;BME280;5229;41.820;23.490;2023-04-23T08:19:44;90016.00;;;24.17;42.96
10366;BME280;5229;41.820;23.490;2023-04-23T08:22:11;90005.25;;;25.14;41.37
10366;BME280;5229;41.820;23.490;2023-04-23T08:24:37;90004.66;;;26.21;39.03
10366;BME280;5229;41.820;23.490;2023-04-23T08:27:04;90007.16;;;27.22;37.71
10366;BME280;5229;41.820;23.490;2023-04-23T08:29:31;90009.59;;;28.25;35.68
10366;BME280;5229;41.820;23.490;2023-04-23T08:32:01;90010.78;;;29.18;33.40
10366;BME280;5229;41.820;23.490;2023-04-23T08:34:28;90011.28;;;30.09;31.86
10366;BME280;5229;41.820;23.490;2023-04-23T08:36:55;90010.75;;;30.87;30.82
10366;BME280;5229;41.820;23.490;2023-04-23T08:39:21;90010.03;;;31.62;29.36
10366;BME280;5229;41.820;23.490;2023-04-23T08:41:53;90015.28;;;32.24;27.94
10366;BME280;5229;41.820;23.490;2023-04-23T08:44:22;90009.81;;;32.83;27.25
10366;BME280;5229;41.820;23.490;2023-04-23T08:46:49;90022.38;;;33.39;25.97
10366;BME280;5229;41.820;23.490;2023-04-23T08:49:19;90010.03;;;34.08;24.62
10366;BME280;5229;41.820;23.490;2023-04-23T08:51:49;90014.16;;;34.75;23.11
10366;BME280;5229;41.820;23.490;2023-04-23T08:54:19;90006.88;;;35.26;22.73
10366;BME280;5229;41.820;23.490;2023-04-23T08:56:48;90005.53;;;35.72;22.64
10366;BME280;5229;41.820;23.490;2023-04-23T08:59:17;90010.03;;;36.08;21.80
10366;BME280;5229;41.820;23.490;2023-04-23T09:01:45;90012.72;;;36.41;20.90
10366;BME280;5229;41.820;23.490;2023-04-23T09:04:12;90014.69;;;36.78;20.37
10366;BME280;5229;41.820;23.490;2023-04-23T09:06:42;90019.28;;;37.01;20.11
10366;BME280;5229;41.820;23.490;2023-04-23T09:09:10;90007.75;;;37.30;19.26
10366;BME280;5229;41.820;23.490;2023-04-23T09:11:38;90015.41;;;37.31;18.73
10366;BME280;5229;41.820;23.490;2023-04-23T09:14:05;90009.84;;;36.82;18.71
10366;BME280;5229;41.820;23.490;2023-04-23T09:16:32;90004.34;;;36.06;18.73
10366;BME280;5229;41.820;23.490;2023-04-23T09:18:58;89996.56;;;35.34;18.89
10366;BME280;5229;41.820;23.490;2023-04-23T09:21:25;89999.44;;;34.31;18.73
10366;BME280;5229;41.820;23.490;2023-04-23T09:23:53;89991.34;;;34.13;18.98
10366;BME280;5229;41.820;23.490;2023-04-23T09:26:21;89987.66;;;33.32;20.04
10366;BME280;5229;41.820;23.490;2023-04-23T09:28:48;89985.31;;;32.26;21.03
10366;BME280;5229;41.820;23.490;2023-04-23T09:31:19;89988.84;;;32.01;21.66
10366;BME280;5229;41.820;23.490;2023-04-23T09:33:49;89981.06;;;32.16;21.91
10366;BME280;5229;41.820;23.490;2023-04-23T09:36:19;89977.09;;;31.61;22.33
10366;BME280;5229;41.820;23.490;2023-04-23T09:38:47;89973.03;;;30.53;22.95
10366;BME280;5229;41.820;23.490;2023-04-23T09:41:23;89967.53;;;29.39;24.32
10366;BME280;5229;41.820;23.490;2023-04-23T09:43:52;89976.38;;;28.49;24.77
10366;BME280;5229;41.820;23.490;2023-04-23T09:46:31;89961.91;;;27.64;26.01
10366;BME280;5229;41.820;23.490;2023-04-23T09:48:59;89960.50;;;26.87;26.56
10366;BME280;5229;41.820;23.490;2023-04-23T09:51:26;89955.41;;;26.40;27.43
10366;BME280;5229;41.820;23.490;2023-04-23T09:53:55;89957.56;;;26.18;27.25
10366;BME280;5229;41.820;23.490;2023-04-23T09:56:23;89955.81;;;26.38;27.06
10366;BME280;5229;41.820;23.490;2023-04-23T09:58:50;89959.53;;;26.44;26.90
10366;BME280;5229;41.820;23.490;2023-04-23T10:01:17;89957.97;;;26.17;26.52
10366;BME280;5229;41.820;23.490;2023-04-23T10:03:43;89950.81;;;25.77;26.99
10366;BME280;5229;41.820;23.490;2023-04-23T10:06:12;89950.47;;;25.34;27.60
10366;BME280;5229;41.820;23.490;2023-04-23T10:08:40;89941.22;;;25.05;27.36
10366;BME280;5229;41.820;23.490;2023-04-23T10:11:07;89953.91;;;24.83;28.04
10366;BME280;5229;41.820;23.490;2023-04-23T10:13:35;89945.03;;;25.04;27.66
10366;BME280;5229;41.820;23.490;2023-04-23T10:16:03;89944.75;;;26.10;26.61
10366;BME280;5229;41.820;23.490;2023-04-23T10:18:31;89943.84;;;26.80;25.92
10366;BME280;5229;41.820;23.490;2023-04-23T10:21:00;89935.94;;;27.26;25.34
10366;BME280;5229;41.820;23.490;2023-04-23T10:23:28;89935.72;;;27.82;24.68
10366;BME280;5229;41.820;23.490;2023-04-23T10:25:58;89935.38;;;28.59;23.80
10366;BME280;5229;41.820;23.490;2023-04-23T10:28:29;89930.13;;;29.23;23.23
10366;BME280;5229;41.820;23.490;2023-04-23T10:31:01;89933.31;;;29.18;22.86
10366;BME280;5229;41.820;23.490;2023-04-23T10:33:30;89930.81;;;28.75;23.72
10366;BME280;5229;41.820;23.490;2023-04-23T10:35:56;89929.16;;;28.26;24.34
10366;BME280;5229;41.820;23.490;2023-04-23T10:38:25;89924.81;;;27.73;24.73
10366;BME280;5229;41.820;23.490;2023-04-23T10:40:54;89919.72;;;27.17;25.16
10366;BME280;5229;41.820;23.490;2023-04-23T10:43:22;89919.50;;;26.51;25.49
10366;BME280;5229;41.820;23.490;2023-04-23T10:45:50;89922.84;;;26.02;26.50
10366;BME280;5229;41.820;23.490;2023-04-23T10:48:19;89908.84;;;25.61;26.86
10366;BME280;5229;41.820;23.490;2023-04-23T10:50:46;89912.97;;;25.25;26.66
10366;BME280;5229;41.820;23.490;2023-04-23T10:53:17;89909.63;;;24.73;27.40
10366;BME280;5229;41.820;23.490;2023-04-23T10:55:46;89897.75;;;24.34;27.15
10366;BME280;5229;41.820;23.490;2023-04-23T10:58:12;89899.06;;;24.05;27.60
10366;BME280;5229;41.820;23.490;2023-04-23T11:00:44;89896.50;;;23.77;27.80
10366;BME280;5229;41.820;23.490;2023-04-23T11:03:37;89893.94;;;23.52;28.46
10366;BME280;5229;41.820;23.490;2023-04-23T11:06:07;89896.66;;;23.35;28.18
10366;BME280;5229;41.820;23.490;2023-04-23T11:08:34;89891.44;;;22.89;28.10
10366;BME280;5229;41.820;23.490;2023-04-23T11:11:06;89898.59;;;22.60;28.27
10366;BME280;5229;41.820;23.490;2023-04-23T11:13:33;89894.47;;;22.52;28.09
10366;BME280;5229;41.820;23.490;2023-04-23T11:16:13;89886.88;;;22.54;27.66
10366;BME280;5229;41.820;23.490;2023-04-23T11:18:58;89888.41;;;22.66;27.95
10366;BME280;5229;41.820;23.490;2023-04-23T11:21:55;89879.31;;;22.81;27.77
10366;BME280;5229;41.820;23.490;2023-04-23T11:24:21;89886.88;;;22.82;27.78
10366;BME280;5229;41.820;23.490;2023-04-23T11:26:50;89884.63;;;22.77;28.30
10366;BME280;5229;41.820;23.490;2023-04-23T11:29:20;89880.09;;;22.67;28.54
10366;BME280;5229;41.820;23.490;2023-04-23T11:31:47;89882.38;;;22.55;29.01
10366;BME280;5229;41.820;23.490;2023-04-23T11:34:16;89886.50;;;22.45;29.12
10366;BME280;5229;41.820;23.490;2023-04-23T11:36:43;89881.94;;;22.35;29.56
10366;BME280;5229;41.820;23.490;2023-04-23T11:39:10;89886.09;;;22.22;29.66
10366;BME280;5229;41.820;23.490;2023-04-23T11:41:37;89876.66;;;22.14;29.88
10366;BME280;5229;41.820;23.490;2023-04-23T11:44:04;89877.38;;;22.11;29.67
10366;BME280;5229;41.820;23.490;2023-04-23T11:46:32;89872.47;;;21.99;29.77
10366;BME280;5229;41.820;23.490;2023-04-23T11:48:59;89872.06;;;21.80;29.49
10366;BME280;5229;41.820;23.490;2023-04-23T11:51:28;89871.59;;;21.64;29.76
10366;BME280;5229;41.820;23.490;2023-04-23T11:54:01;89870.03;;;21.52;29.86
10366;BME280;5229;41.820;23.490;2023-04-23T11:56:29;89873.03;;;21.47;29.99
10366;BME280;5229;41.820;23.490;2023-04-23T11:58:59;89871.88;;;21.41;29.94
10366;BME280;5229;41.820;23.490;2023-04-23T12:01:39;89870.34;;;21.33;30.34
10366;BME280;5229;41.820;23.490;2023-04-23T12:04:08;89854.84;;;21.25;30.45
10366;BME280;5229;41.820;23.490;2023-04-23T12:06:39;89855.56;;;21.15;30.43
10366;BME280;5229;41.820;23.490;2023-04-23T12:09:06;89854.75;;;21.04;30.74
10366;BME280;5229;41.820;23.490;2023-04-23T12:11:34;89847.56;;;20.97;30.23
10366;BME280;5229;41.820;23.490;2023-04-23T12:14:01;89849.47;;;21.00;30.71
10366;BME280;5229;41.820;23.490;2023-04-23T12:16:38;89844.25;;;21.07;30.80
10366;BME280;5229;41.820;23.490;2023-04-23T12:19:08;89842.41;;;21.18;30.81
10366;BME280;5229;41.820;23.490;2023-04-23T12:21:51;89831.81;;;21.15;30.34
10366;BME280;5229;41.820;23.490;2023-04-23T12:24:20;89819.41;;;21.15;30.73
10366;BME280;5229;41.820;23.490;2023-04-23T12:26:49;89822.81;;;21.16;30.30
10366;BME280;5229;41.820;23.490;2023-04-23T12:29:19;89818.66;;;21.18;30.49
10366;BME280;5229;41.820;23.490;2023-04-23T12:31:46;89817.53;;;21.16;29.79
10366;BME280;5229;41.820;23.490;2023-04-23T12:34:13;89813.31;;;21.08;29.95
10366;BME280;5229;41.820;23.490;2023-04-23T12:36:44;89802.38;;;21.02;30.06
10366;BME280;5229;41.820;23.490;2023-04-23T12:39:20;89808.69;;;20.87;29.58
10366;BME280;5229;41.820;23.490;2023-04-23T12:41:48;89793.56;;;20.77;29.86
10366;BME280;5229;41.820;23.490;2023-04-23T12:44:15;89798.84;;;20.74;30.18
10366;BME280;5229;41.820;23.490;2023-04-23T12:46:42;89796.16;;;20.67;30.02
10366;BME280;5229;41.820;23.490;2023-04-23T12:49:09;89791.59;;;20.57;30.08
10366;BME280;5229;41.820;23.490;2023-04-23T12:51:35;89789.63;;;20.43;30.15
10366;BME280;5229;41.820;23.490;2023-04-23T12:54:03;89800.44;;;20.31;30.28
10366;BME280;5229;41.820;23.490;2023-04-23T12:56:31;89796.63;;;20.18;30.40
10366;BME280;5229;41.820;23.490;2023-04-23T12:58:58;89795.44;;;20.12;30.12
10366;BME280;5229;41.820;23.490;2023-04-23T13:01:26;89797.25;;;20.08;30.54
10366;BME280;5229;41.820;23.490;2023-04-23T13:03:53;89790.88;;;20.09;30.32
10366;BME280;5229;41.820;23.490;2023-04-23T13:06:20;89787.53;;;20.12;30.34
10366;BME280;5229;41.820;23.490;2023-04-23T13:08:47;89789.09;;;20.17;30.45